sensor_id;sensor_type;location;lat;lon;timestamp;pressure;altitude;pressure_sealevel;temperature;humidity
47280;BME280;34064;44.942;0.008;2022-11-20T00:00:51;99207.97;;;5.54;62.07
47280;BME280;34064;44.942;0.008;2022-11-20T00:03:17;99212.97;;;5.41;62.41
47280;BME280;34064;44.942;0.008;2022-11-20T00:05:44;99215.56;;;5.43;62.22
47280;BME280;34064;44.942;0.008;2022-11-20T00:08:11;99215.56;;;5.43;62.13
47280;BME280;34064;44.942;0.008;2022-11-20T00:10:39;99215.56;;;5.43;62.30
47280;BME280;34064;44.942;0.008;2022-11-20T00:13:06;99214.59;;;5.44;62.37
47280;BME280;34064;44.942;0.008;2022-11-20T00:15:33;99209.34;;;5.44;62.41
47280;BME280;34064;44.942;0.008;2022-11-20T00:17:59;99200.69;;;5.42;62.34
47280;BME280;34064;44.942;0.008;2022-11-20T00:20:25;99200.69;;;5.42;62.24
47280;BME280;34064;44.942;0.008;2022-11-20T00:22:52;99206.88;;;5.41;62.22
47280;BME280;34064;44.942;0.008;2022-11-20T00:25:18;99216.63;;;5.39;62.12
47280;BME280;34064;44.942;0.008;2022-11-20T00:27:45;99219.63;;;5.31;62.12
47280;BME280;34064;44.942;0.008;2022-11-20T00:30:11;99210.78;;;5.32;62.23
47280;BME280;34064;44.942;0.008;2022-11-20T00:32:38;99225.75;;;5.31;62.26
47280;BME280;34064;44.942;0.008;2022-11-20T00:35:04;99230.38;;;5.26;62.23
47280;BME280;34064;44.942;0.008;2022-11-20T00:37:31;99221.63;;;5.26;62.39
47280;BME280;34064;44.942;0.008;2022-11-20T00:39:57;99221.56;;;5.27;62.36
47280;BME280;34064;44.942;0.008;2022-11-20T00:42:24;99231.16;;;5.28;62.35
47280;BME280;34064;44.942;0.008;2022-11-20T00:44:50;99222.34;;;5.29;62.35
47280;BME280;34064;44.942;0.008;2022-11-20T00:47:16;99220.50;;;5.31;62.54
47280;BME280;34064;44.942;0.008;2022-11-20T00:49:42;99218.66;;;5.34;62.76
47280;BME280;34064;44.942;0.008;2022-11-20T00:52:09;99221.28;;;5.34;62.56
47280;BME280;34064;44.942;0.008;2022-11-20T00:54:35;99218.47;;;5.37;62.51
47280;BME280;34064;44.942;0.008;2022-11-20T00:57:02;99215.94;;;5.35;62.65
47280;BME280;34064;44.942;0.008;2022-11-20T00:59:28;99208.03;;;5.35;62.69
47280;BME280;34064;44.942;0.008;2022-11-20T01:01:54;99205.38;;;5.35;62.36
47280;BME280;34064;44.942;0.008;2022-11-20T01:04:21;99209.78;;;5.35;62.65
47280;BME280;34064;44.942;0.008;2022-11-20T01:06:47;99211.59;;;5.34;62.52
47280;BME280;34064;44.942;0.008;2022-11-20T01:09:14;99213.59;;;5.29;62.63
47280;BME280;34064;44.942;0.008;2022-11-20T01:11:43;99207.47;;;5.28;62.52
47280;BME280;34064;44.942;0.008;2022-11-20T01:14:16;99203.13;;;5.27;62.50
47280;BME280;34064;44.942;0.008;2022-11-20T01:16:46;99196.13;;;5.26;62.76
47280;BME280;34064;44.942;0.008;2022-11-20T01:19:16;99199.69;;;5.25;62.72
47280;BME280;34064;44.942;0.008;2022-11-20T01:21:44;99199.69;;;5.25;62.76
47280;BME280;34064;44.942;0.008;2022-11-20T01:24:15;99204.03;;;5.26;62.86
47280;BME280;34064;44.942;0.008;2022-11-20T01:26:42;99209.53;;;5.22;62.53
47280;BME280;34064;44.942;0.008;2022-11-20T01:29:20;99205.72;;;5.10;62.64
47280;BME280;34064;44.942;0.008;2022-11-20T01:31:47;99209.41;;;5.06;62.80
47280;BME280;34064;44.942;0.008;2022-11-20T01:34:17;99213.91;;;5.04;62.73
47280;BME280;34064;44.942;0.008;2022-11-20T01:36:44;99204.91;;;5.08;62.87
47280;BME280;34064;44.942;0.008;2022-11-20T01:39:17;99195.19;;;5.10;62.84
47280;BME280;34064;44.942;0.008;2022-11-20T01:41:47;99202.16;;;5.11;62.87
47280;BME280;34064;44.942;0.008;2022-11-20T01:50:03;99209.13;;;5.12;62.75
47280;BME280;34064;44.942;0.008;2022-11-20T01:52:48;99211.13;;;5.07;62.86
47280;BME280;34064;44.942;0.008;2022-11-20T01:55:19;99208.47;;;5.07;62.75
47280;BME280;34064;44.942;0.008;2022-11-20T01:57:49;99213.75;;;5.07;62.72
47280;BME280;34064;44.942;0.008;2022-11-20T02:00:18;99221.72;;;5.05;62.74
47280;BME280;34064;44.942;0.008;2022-11-20T02:02:49;99220.25;;;4.99;62.79
47280;BME280;34064;44.942;0.008;2022-11-20T02:05:23;99210.63;;;4.98;62.84
47280;BME280;34064;44.942;0.008;2022-11-20T02:07:51;99223.97;;;4.95;62.71
47280;BME280;34064;44.942;0.008;2022-11-20T02:10:19;99210.94;;;4.92;62.73
47280;BME280;34064;44.942;0.008;2022-11-20T02:12:45;99217.03;;;4.93;62.91
47280;BME280;34064;44.942;0.008;2022-11-20T02:15:30;99223.22;;;4.92;62.69
47280;BME280;34064;44.942;0.008;2022-11-20T02:17:58;99218.03;;;4.90;63.00
47280;BME280;34064;44.942;0.008;2022-11-20T02:20:25;99219.88;;;4.88;62.91
47280;BME280;34064;44.942;0.008;2022-11-20T02:22:57;99218.16;;;4.87;62.89
47280;BME280;34064;44.942;0.008;2022-11-20T02:25:26;99216.53;;;4.84;62.77
47280;BME280;34064;44.942;0.008;2022-11-20T02:27:54;99219.25;;;4.83;62.76
47280;BME280;34064;44.942;0.008;2022-11-20T02:30:20;99214.00;;;4.83;63.01
47280;BME280;34064;44.942;0.008;2022-11-20T02:32:46;99204.16;;;4.87;62.80
47280;BME280;34064;44.942;0.008;2022-11-20T02:37:49;99198.06;;;4.86;62.91
47280;BME280;34064;44.942;0.008;2022-11-20T02:40:16;99206.88;;;4.85;62.91
47280;BME280;34064;44.942;0.008;2022-11-20T02:42:42;99206.09;;;4.83;62.69
47280;BME280;34064;44.942;0.008;2022-11-20T02:45:09;99203.75;;;4.77;62.80
47280;BME280;34064;44.942;0.008;2022-11-20T02:47:35;99198.75;;;4.71;62.65
47280;BME280;34064;44.942;0.008;2022-11-20T02:50:03;99197.13;;;4.68;62.92
47280;BME280;34064;44.942;0.008;2022-11-20T02:52:29;99197.03;;;4.69;63.32
47280;BME280;34064;44.942;0.008;2022-11-20T02:54:56;99197.03;;;4.69;63.07
47280;BME280;34064;44.942;0.008;2022-11-20T02:57:22;99196.06;;;4.72;63.05
47280;BME280;34064;44.942;0.008;2022-11-20T02:59:49;99192.66;;;4.70;63.27
47280;BME280;34064;44.942;0.008;2022-11-20T03:02:15;99197.03;;;4.69;63.28
47280;BME280;34064;44.942;0.008;2022-11-20T03:04:41;99191.94;;;4.66;63.09
47280;BME280;34064;44.942;0.008;2022-11-20T03:07:09;99186.81;;;4.63;63.08
47280;BME280;34064;44.942;0.008;2022-11-20T03:09:36;99184.03;;;4.66;62.93
47280;BME280;34064;44.942;0.008;2022-11-20T03:12:02;99171.81;;;4.65;63.02
47280;BME280;34064;44.942;0.008;2022-11-20T03:14:28;99170.00;;;4.66;63.09
47280;BME280;34064;44.942;0.008;2022-11-20T03:16:55;99167.34;;;4.67;63.14
47280;BME280;34064;44.942;0.008;2022-11-20T03:19:22;99159.44;;;4.67;63.19
47280;BME280;34064;44.942;0.008;2022-11-20T03:21:48;99155.84;;;4.68;62.86
47280;BME280;34064;44.942;0.008;2022-11-20T03:24:15;99158.47;;;4.68;63.04
47280;BME280;34064;44.942;0.008;2022-11-20T03:26:41;99148.13;;;4.65;63.15
47280;BME280;34064;44.942;0.008;2022-11-20T03:29:07;99149.97;;;4.63;62.94
47280;BME280;34064;44.942;0.008;2022-11-20T03:31:37;99148.25;;;4.62;62.94
47280;BME280;34064;44.942;0.008;2022-11-20T03:34:04;99155.34;;;4.60;62.81
47280;BME280;34064;44.942;0.008;2022-11-20T03:36:30;99146.69;;;4.58;62.99
47280;BME280;34064;44.942;0.008;2022-11-20T03:38:57;99134.31;;;4.60;63.09
47280;BME280;34064;44.942;0.008;2022-11-20T03:41:25;99134.19;;;4.63;63.20
47280;BME280;34064;44.942;0.008;2022-11-20T03:43:54;99133.34;;;4.63;63.25
47280;BME280;34064;44.942;0.008;2022-11-20T03:46:21;99123.66;;;4.63;63.07
47280;BME280;34064;44.942;0.008;2022-11-20T03:48:48;99119.19;;;4.65;62.99
47280;BME280;34064;44.942;0.008;2022-11-20T03:51:15;99120.88;;;4.66;63.03
47280;BME280;34064;44.942;0.008;2022-11-20T03:53:43;99120.94;;;4.65;63.17
47280;BME280;34064;44.942;0.008;2022-11-20T03:56:12;99119.59;;;4.56;63.34
47280;BME280;34064;44.942;0.008;2022-11-20T03:58:40;99124.09;;;4.54;63.17
47280;BME280;34064;44.942;0.008;2022-11-20T04:03:37;99124.38;;;4.48;63.46
47280;BME280;34064;44.942;0.008;2022-11-20T04:08:34;99112.97;;;4.47;63.05
47280;BME280;34064;44.942;0.008;2022-11-20T04:13:42;99122.31;;;4.35;63.56
47280;BME280;34064;44.942;0.008;2022-11-20T04:16:11;99126.66;;;4.36;63.22
47280;BME280;34064;44.942;0.008;2022-11-20T04:18:38;99125.78;;;4.36;63.28
47280;BME280;34064;44.942;0.008;2022-11-20T04:21:05;99131.91;;;4.36;63.23
47280;BME280;34064;44.942;0.008;2022-11-20T04:23:32;99116.03;;;4.38;63.48
47280;BME280;34064;44.942;0.008;2022-11-20T04:26:04;99111.44;;;4.43;63.37
47280;BME280;34064;44.942;0.008;2022-11-20T04:28:30;99109.56;;;4.45;63.57
47280;BME280;34064;44.942;0.008;2022-11-20T04:31:06;99098.06;;;4.48;63.37
47280;BME280;34064;44.942;0.008;2022-11-20T04:33:33;99105.09;;;4.47;63.69
47280;BME280;34064;44.942;0.008;2022-11-20T04:36:14;99099.00;;;4.47;63.73
47280;BME280;34064;44.942;0.008;2022-11-20T04:38:42;99099.91;;;4.46;63.98
47280;BME280;34064;44.942;0.008;2022-11-20T04:41:18;99096.41;;;4.45;64.00
47280;BME280;34064;44.942;0.008;2022-11-20T04:43:51;99090.94;;;4.50;64.11
47280;BME280;34064;44.942;0.008;2022-11-20T04:46:20;99087.38;;;4.51;64.02
47280;BME280;34064;44.942;0.008;2022-11-20T04:48:47;99091.72;;;4.52;64.11
47280;BME280;34064;44.942;0.008;2022-11-20T04:51:13;99088.94;;;4.55;63.98
47280;BME280;34064;44.942;0.008;2022-11-20T04:53:40;99087.09;;;4.57;63.68
47280;BME280;34064;44.942;0.008;2022-11-20T04:56:07;99096.69;;;4.58;63.92
47280;BME280;34064;44.942;0.008;2022-11-20T04:58:34;99092.28;;;4.59;64.11
47280;BME280;34064;44.942;0.008;2022-11-20T05:01:12;99086.03;;;4.61;64.01
47280;BME280;34064;44.942;0.008;2022-11-20T05:03:39;99078.81;;;4.65;63.87
47280;BME280;34064;44.942;0.008;2022-11-20T05:06:07;99078.81;;;4.65;64.27
47280;BME280;34064;44.942;0.008;2022-11-20T05:08:34;99080.41;;;4.69;64.15
47280;BME280;34064;44.942;0.008;2022-11-20T05:11:03;99083.03;;;4.69;64.46
47280;BME280;34064;44.942;0.008;2022-11-20T05:13:29;99078.38;;;4.74;64.17
47280;BME280;34064;44.942;0.008;2022-11-20T05:16:00;99076.63;;;4.75;64.25
47280;BME280;34064;44.942;0.008;2022-11-20T05:18:27;99081.66;;;4.79;64.20
47280;BME280;34064;44.942;0.008;2022-11-20T05:20:57;99084.22;;;4.81;64.42
47280;BME280;34064;44.942;0.008;2022-11-20T05:23:24;99077.94;;;4.83;64.37
47280;BME280;34064;44.942;0.008;2022-11-20T05:25:55;99088.31;;;4.87;64.12
47280;BME280;34064;44.942;0.008;2022-11-20T05:28:23;99078.81;;;4.84;64.69
47280;BME280;34064;44.942;0.008;2022-11-20T05:30:50;99075.09;;;4.88;64.53
47280;BME280;34064;44.942;0.008;2022-11-20T05:33:17;99073.22;;;4.90;64.32
47280;BME280;34064;44.942;0.008;2022-11-20T05:35:45;99073.09;;;4.93;64.43
47280;BME280;34064;44.942;0.008;2022-11-20T05:38:11;99067.03;;;4.91;64.71
47280;BME280;34064;44.942;0.008;2022-11-20T05:40:38;99064.97;;;4.98;64.15
47280;BME280;34064;44.942;0.008;2022-11-20T05:43:04;99063.88;;;5.02;64.62
47280;BME280;34064;44.942;0.008;2022-11-20T05:45:30;99061.41;;;4.99;64.74
47280;BME280;34064;44.942;0.008;2022-11-20T05:48:00;99060.41;;;5.02;64.53
47280;BME280;34064;44.942;0.008;2022-11-20T05:50:27;99067.38;;;5.03;64.56
47280;BME280;34064;44.942;0.008;2022-11-20T05:52:54;99057.75;;;5.02;64.64
47280;BME280;34064;44.942;0.008;2022-11-20T05:55:20;99057.69;;;5.03;64.54
47280;BME280;34064;44.942;0.008;2022-11-20T05:57:46;99061.94;;;5.06;64.54
47280;BME280;34064;44.942;0.008;2022-11-20T06:00:13;99065.53;;;5.05;64.86
47280;BME280;34064;44.942;0.008;2022-11-20T06:02:40;99058.38;;;5.07;65.13
47280;BME280;34064;44.942;0.008;2022-11-20T06:05:06;99065.22;;;5.11;64.81
47280;BME280;34064;44.942;0.008;2022-11-20T06:07:33;99055.69;;;5.08;65.39
47280;BME280;34064;44.942;0.008;2022-11-20T06:09:59;99057.06;;;5.15;64.75
47280;BME280;34064;44.942;0.008;2022-11-20T06:12:25;99057.78;;;5.19;64.73
47280;BME280;34064;44.942;0.008;2022-11-20T06:14:52;99059.47;;;5.20;64.92
47280;BME280;34064;44.942;0.008;2022-11-20T06:17:18;99059.16;;;5.26;64.83
47280;BME280;34064;44.942;0.008;2022-11-20T06:19:44;99058.88;;;5.33;65.04
47280;BME280;34064;44.942;0.008;2022-11-20T06:22:11;99053.38;;;5.37;64.86
47280;BME280;34064;44.942;0.008;2022-11-20T06:24:37;99049.56;;;5.43;64.80
47280;BME280;34064;44.942;0.008;2022-11-20T06:27:03;99051.25;;;5.44;65.27
47280;BME280;34064;44.942;0.008;2022-11-20T06:29:29;99052.78;;;5.48;65.05
47280;BME280;34064;44.942;0.008;2022-11-20T06:31:56;99047.19;;;5.54;65.03
47280;BME280;34064;44.942;0.008;2022-11-20T06:34:22;99038.91;;;5.62;65.08
47280;BME280;34064;44.942;0.008;2022-11-20T06:36:48;99039.59;;;5.66;65.28
47280;BME280;34064;44.942;0.008;2022-11-20T06:39:15;99032.47;;;5.68;65.55
47280;BME280;34064;44.942;0.008;2022-11-20T06:41:41;99030.25;;;5.76;65.61
47280;BME280;34064;44.942;0.008;2022-11-20T06:44:07;99024.66;;;5.82;65.60
47280;BME280;34064;44.942;0.008;2022-11-20T06:46:34;99013.78;;;5.88;65.38
47280;BME280;34064;44.942;0.008;2022-11-20T06:49:00;99018.72;;;5.94;65.37
47280;BME280;34064;44.942;0.008;2022-11-20T06:51:26;98998.31;;;5.98;65.47
47280;BME280;34064;44.942;0.008;2022-11-20T06:53:53;99004.31;;;6.02;65.66
47280;BME280;34064;44.942;0.008;2022-11-20T06:56:20;98998.72;;;6.08;65.66
47280;BME280;34064;44.942;0.008;2022-11-20T06:58:46;99001.94;;;6.13;65.98
47280;BME280;34064;44.942;0.008;2022-11-20T07:01:14;99000.84;;;6.17;65.83
47280;BME280;34064;44.942;0.008;2022-11-20T07:03:41;98997.28;;;6.18;65.87
47280;BME280;34064;44.942;0.008;2022-11-20T07:06:08;98990.09;;;6.20;66.32
47280;BME280;34064;44.942;0.008;2022-11-20T07:08:35;98983.81;;;6.23;66.21
47280;BME280;34064;44.942;0.008;2022-11-20T07:11:03;98969.41;;;6.29;66.08
47280;BME280;34064;44.942;0.008;2022-11-20T07:13:31;98967.38;;;6.34;66.08
47280;BME280;34064;44.942;0.008;2022-11-20T07:16:06;98974.16;;;6.38;66.23
47280;BME280;34064;44.942;0.008;2022-11-20T07:18:33;98972.13;;;6.43;66.35
47280;BME280;34064;44.942;0.008;2022-11-20T07:21:04;98971.88;;;6.48;66.40
47280;BME280;34064;44.942;0.008;2022-11-20T07:23:31;98976.28;;;6.47;66.49
47280;BME280;34064;44.942;0.008;2022-11-20T07:25:57;98971.78;;;6.49;66.36
47280;BME280;34064;44.942;0.008;2022-11-20T07:28:24;98974.09;;;6.55;66.63
47280;BME280;34064;44.942;0.008;2022-11-20T07:30:51;98973.97;;;6.57;67.08
47280;BME280;34064;44.942;0.008;2022-11-20T07:33:18;98958.66;;;6.64;67.00
47280;BME280;34064;44.942;0.008;2022-11-20T07:35:44;98965.28;;;6.71;66.78
47280;BME280;34064;44.942;0.008;2022-11-20T07:38:11;98968.56;;;6.75;67.31
47280;BME280;34064;44.942;0.008;2022-11-20T07:40:37;98972.38;;;6.85;67.33
47280;BME280;34064;44.942;0.008;2022-11-20T07:43:03;98965.22;;;6.87;67.35
47280;BME280;34064;44.942;0.008;2022-11-20T07:45:30;98970.25;;;6.92;67.42
47280;BME280;34064;44.942;0.008;2022-11-20T07:47:56;98972.50;;;6.98;67.66
47280;BME280;34064;44.942;0.008;2022-11-20T07:50:22;98976.59;;;7.03;67.53
47280;BME280;34064;44.942;0.008;2022-11-20T07:52:49;98981.03;;;7.03;68.21
47280;BME280;34064;44.942;0.008;2022-11-20T07:55:15;98985.84;;;7.11;67.65
47280;BME280;34064;44.942;0.008;2022-11-20T07:57:42;98987.25;;;7.16;67.58
47280;BME280;34064;44.942;0.008;2022-11-20T08:00:10;98987.94;;;7.20;68.11
47280;BME280;34064;44.942;0.008;2022-11-20T08:02:41;98992.66;;;7.29;67.59
47280;BME280;34064;44.942;0.008;2022-11-20T08:05:10;99007.50;;;7.32;68.47
47280;BME280;34064;44.942;0.008;2022-11-20T08:07:41;99011.47;;;7.39;68.00
47280;BME280;34064;44.942;0.008;2022-11-20T08:10:09;99013.75;;;7.45;67.72
47280;BME280;34064;44.942;0.008;2022-11-20T08:12:36;99012.13;;;7.57;67.69
47280;BME280;34064;44.942;0.008;2022-11-20T08:15:28;99006.84;;;7.57;67.75
47280;BME280;34064;44.942;0.008;2022-11-20T08:18:03;99002.22;;;7.61;67.85
47280;BME280;34064;44.942;0.008;2022-11-20T08:20:29;99000.16;;;7.66;67.64
47280;BME280;34064;44.942;0.008;2022-11-20T08:23:03;98981.19;;;7.74;67.57
47280;BME280;34064;44.942;0.008;2022-11-20T08:25:32;98973.69;;;7.80;67.76
47280;BME280;34064;44.942;0.008;2022-11-20T08:28:00;98967.00;;;7.89;67.79
47280;BME280;34064;44.942;0.008;2022-11-20T08:30:27;98983.88;;;8.01;68.13
47280;BME280;34064;44.942;0.008;2022-11-20T08:32:54;98985.41;;;8.05;68.21
47280;BME280;34064;44.942;0.008;2022-11-20T08:35:22;98973.56;;;8.11;67.91
47280;BME280;34064;44.942;0.008;2022-11-20T08:37:49;98969.69;;;8.17;68.07
47280;BME280;34064;44.942;0.008;2022-11-20T08:40:15;98965.41;;;8.28;68.09
47280;BME280;34064;44.942;0.008;2022-11-20T08:42:49;98962.25;;;8.36;68.37
47280;BME280;34064;44.942;0.008;2022-11-20T08:45:18;98945.59;;;8.49;68.20
47280;BME280;34064;44.942;0.008;2022-11-20T08:47:45;98941.50;;;8.57;68.35
47280;BME280;34064;44.942;0.008;2022-11-20T08:50:13;98937.38;;;8.66;68.35
47280;BME280;34064;44.942;0.008;2022-11-20T08:52:40;98931.69;;;8.72;68.73
47280;BME280;34064;44.942;0.008;2022-11-20T08:55:08;98935.50;;;8.81;68.75
47280;BME280;34064;44.942;0.008;2022-11-20T08:57:36;98943.38;;;8.83;68.52
47280;BME280;34064;44.942;0.008;2022-11-20T09:00:05;98954.91;;;8.82;68.84
47280;BME280;34064;44.942;0.008;2022-11-20T09:02:32;98939.75;;;8.84;68.63
47280;BME280;34064;44.942;0.008;2022-11-20T09:04:58;98928.50;;;8.80;69.32
47280;BME280;34064;44.942;0.008;2022-11-20T09:07:24;98931.06;;;8.82;69.43
47280;BME280;34064;44.942;0.008;2022-11-20T09:09:51;98928.13;;;8.86;69.18
47280;BME280;34064;44.942;0.008;2022-11-20T09:12:17;98930.44;;;8.91;68.97
47280;BME280;34064;44.942;0.008;2022-11-20T09:14:43;98929.19;;;8.97;68.98
47280;BME280;34064;44.942;0.008;2022-11-20T09:17:11;98933.44;;;8.99;68.91
47280;BME280;34064;44.942;0.008;2022-11-20T09:19:40;98937.47;;;9.05;69.25
47280;BME280;34064;44.942;0.008;2022-11-20T09:22:07;98943.41;;;9.09;69.27
47280;BME280;34064;44.942;0.008;2022-11-20T09:24:34;98942.97;;;9.15;69.30
47280;BME280;34064;44.942;0.008;2022-11-20T09:27:05;98958.56;;;9.19;69.23
47280;BME280;34064;44.942;0.008;2022-11-20T09:29:31;98955.38;;;9.27;69.24
47280;BME280;34064;44.942;0.008;2022-11-20T09:31:58;98948.28;;;9.28;69.35
47280;BME280;34064;44.942;0.008;2022-11-20T09:34:24;98946.16;;;9.33;69.40
47280;BME280;34064;44.942;0.008;2022-11-20T09:36:50;98941.28;;;9.40;69.33
47280;BME280;34064;44.942;0.008;2022-11-20T09:39:17;98944.03;;;9.51;69.53
47280;BME280;34064;44.942;0.008;2022-11-20T09:47:20;98915.38;;;9.69;69.76
47280;BME280;34064;44.942;0.008;2022-11-20T09:53:06;98880.34;;;9.77;69.95
47280;BME280;34064;44.942;0.008;2022-11-20T09:55:36;98883.38;;;9.83;70.33
47280;BME280;34064;44.942;0.008;2022-11-20T09:58:07;98870.91;;;9.97;70.62
47280;BME280;34064;44.942;0.008;2022-11-20T10:00:35;98865.88;;;10.05;70.45
47280;BME280;34064;44.942;0.008;2022-11-20T10:03:14;98864.72;;;10.09;70.51
47280;BME280;34064;44.942;0.008;2022-11-20T10:05:49;98865.09;;;10.16;70.50
47280;BME280;34064;44.942;0.008;2022-11-20T10:08:31;98869.34;;;10.19;71.08
47280;BME280;34064;44.942;0.008;2022-11-20T10:16:50;98857.56;;;10.34;70.70
47280;BME280;34064;44.942;0.008;2022-11-20T10:19:38;98853.84;;;10.37;70.84
47280;BME280;34064;44.942;0.008;2022-11-20T10:22:26;98852.34;;;10.45;70.89
47280;BME280;34064;44.942;0.008;2022-11-20T10:25:14;98857.56;;;10.58;70.81
47280;BME280;34064;44.942;0.008;2022-11-20T10:30:29;98858.91;;;10.64;71.15
47280;BME280;34064;44.942;0.008;2022-11-20T10:33:04;98855.91;;;10.69;70.95
47280;BME280;34064;44.942;0.008;2022-11-20T10:35:38;98850.38;;;10.72;70.97
47280;BME280;34064;44.942;0.008;2022-11-20T10:38:15;98842.66;;;10.80;71.08
47280;BME280;34064;44.942;0.008;2022-11-20T10:40:45;98838.56;;;10.87;71.20
47280;BME280;34064;44.942;0.008;2022-11-20T10:43:29;98823.81;;;10.95;71.19
47280;BME280;34064;44.942;0.008;2022-11-20T10:46:12;98818.50;;;10.95;71.27
47280;BME280;34064;44.942;0.008;2022-11-20T10:48:43;98818.28;;;10.98;71.33
47280;BME280;34064;44.942;0.008;2022-11-20T10:56:33;98794.97;;;11.13;71.89
47280;BME280;34064;44.942;0.008;2022-11-20T11:02:18;98786.63;;;11.29;71.98
47280;BME280;34064;44.942;0.008;2022-11-20T11:04:50;98797.72;;;11.34;71.64
47280;BME280;34064;44.942;0.008;2022-11-20T11:07:36;98785.00;;;11.37;71.62
47280;BME280;34064;44.942;0.008;2022-11-20T11:12:58;98802.66;;;11.50;71.93
47280;BME280;34064;44.942;0.008;2022-11-20T11:15:30;98805.41;;;11.48;72.12
47280;BME280;34064;44.942;0.008;2022-11-20T11:18:01;98800.09;;;11.48;71.97
47280;BME280;34064;44.942;0.008;2022-11-20T11:20:28;98798.16;;;11.50;71.93
47280;BME280;34064;44.942;0.008;2022-11-20T11:22:56;98795.72;;;11.59;71.88
47280;BME280;34064;44.942;0.008;2022-11-20T11:25:33;98809.03;;;11.59;72.06
47280;BME280;34064;44.942;0.008;2022-11-20T11:28:02;98805.31;;;11.61;71.95
47280;BME280;34064;44.942;0.008;2022-11-20T11:30:40;98801.41;;;11.65;72.20
47280;BME280;34064;44.942;0.008;2022-11-20T11:33:11;98800.31;;;11.68;72.18
47280;BME280;34064;44.942;0.008;2022-11-20T11:35:49;98804.88;;;11.77;72.38
47280;BME280;34064;44.942;0.008;2022-11-20T11:38:28;98785.63;;;11.85;72.36
47280;BME280;34064;44.942;0.008;2022-11-20T11:40:57;98772.41;;;11.95;72.16
47280;BME280;34064;44.942;0.008;2022-11-20T11:43:29;98768.31;;;12.02;72.29
47280;BME280;34064;44.942;0.008;2022-11-20T11:46:35;98764.94;;;12.21;72.36
47280;BME280;34064;44.942;0.008;2022-11-20T11:49:16;98765.59;;;12.35;72.49
47280;BME280;34064;44.942;0.008;2022-11-20T11:54:41;98744.44;;;12.64;72.44
47280;BME280;34064;44.942;0.008;2022-11-20T12:00:05;98726.84;;;12.83;72.36
47280;BME280;34064;44.942;0.008;2022-11-20T12:02:48;98723.28;;;12.93;72.34
47280;BME280;34064;44.942;0.008;2022-11-20T12:08:17;98698.63;;;13.21;72.14
47280;BME280;34064;44.942;0.008;2022-11-20T12:16:14;98684.13;;;13.64;72.06
47280;BME280;34064;44.942;0.008;2022-11-20T12:18:44;98679.59;;;13.75;72.25
47280;BME280;34064;44.942;0.008;2022-11-20T12:29:40;98671.44;;;14.15;72.02
47280;BME280;34064;44.942;0.008;2022-11-20T12:34:47;98676.31;;;14.30;72.04
47280;BME280;34064;44.942;0.008;2022-11-20T12:43:19;98676.69;;;14.45;71.79
47280;BME280;34064;44.942;0.008;2022-11-20T12:46:11;98695.41;;;14.45;71.82
47280;BME280;34064;44.942;0.008;2022-11-20T12:49:02;98692.13;;;14.51;71.82
47280;BME280;34064;44.942;0.008;2022-11-20T12:51:52;98684.53;;;14.56;71.68
47280;BME280;34064;44.942;0.008;2022-11-20T13:00:11;98684.78;;;14.73;71.63
47280;BME280;34064;44.942;0.008;2022-11-20T13:08:04;98678.06;;;14.96;71.40
47280;BME280;34064;44.942;0.008;2022-11-20T13:10:59;98677.19;;;15.06;71.13
47280;BME280;34064;44.942;0.008;2022-11-20T13:19:13;98677.06;;;15.25;71.16
47280;BME280;34064;44.942;0.008;2022-11-20T13:21:44;98692.78;;;15.28;71.04
47280;BME280;34064;44.942;0.008;2022-11-20T13:30:32;98687.75;;;15.25;70.31
47280;BME280;34064;44.942;0.008;2022-11-20T13:32:34;98684.84;;;15.19;70.79
47280;BME280;34064;44.942;0.008;2022-11-20T13:35:03;98682.00;;;15.20;70.56
47280;BME280;34064;44.942;0.008;2022-11-20T13:37:35;98689.94;;;15.12;70.93
47280;BME280;34064;44.942;0.008;2022-11-20T13:40:13;98693.59;;;15.11;70.66
47280;BME280;34064;44.942;0.008;2022-11-20T13:42:56;98705.91;;;15.04;70.66
47280;BME280;34064;44.942;0.008;2022-11-20T13:45:29;98709.84;;;15.00;70.52
47280;BME280;34064;44.942;0.008;2022-11-20T13:47:58;98712.59;;;14.90;70.30
47280;BME280;34064;44.942;0.008;2022-11-20T13:50:52;98729.63;;;14.79;70.44
47280;BME280;34064;44.942;0.008;2022-11-20T13:53:31;98721.81;;;14.68;70.46
47280;BME280;34064;44.942;0.008;2022-11-20T13:56:08;98711.81;;;14.70;70.45
47280;BME280;34064;44.942;0.008;2022-11-20T14:01:24;98714.78;;;14.66;70.57
47280;BME280;34064;44.942;0.008;2022-11-20T14:03:52;98706.44;;;14.70;70.36
47280;BME280;34064;44.942;0.008;2022-11-20T14:06:30;98702.78;;;14.71;70.61
47280;BME280;34064;44.942;0.008;2022-11-20T14:08:58;98701.91;;;14.80;70.23
47280;BME280;34064;44.942;0.008;2022-11-20T14:11:27;98703.91;;;14.78;70.37
47280;BME280;34064;44.942;0.008;2022-11-20T14:14:04;98712.59;;;14.80;70.28
47280;BME280;34064;44.942;0.008;2022-11-20T14:16:33;98717.84;;;14.81;70.38
47280;BME280;34064;44.942;0.008;2022-11-20T14:21:47;98700.47;;;14.86;70.14
47280;BME280;34064;44.942;0.008;2022-11-20T14:24:18;98713.03;;;14.85;70.30
47280;BME280;34064;44.942;0.008;2022-11-20T14:26:46;98711.72;;;14.89;70.35
47280;BME280;34064;44.942;0.008;2022-11-20T14:29:17;98711.44;;;14.92;70.22
47280;BME280;34064;44.942;0.008;2022-11-20T14:31:51;98712.84;;;14.96;70.35
47280;BME280;34064;44.942;0.008;2022-11-20T14:34:30;98717.88;;;15.00;70.44
47280;BME280;34064;44.942;0.008;2022-11-20T14:37:03;98716.59;;;15.04;70.38
47280;BME280;34064;44.942;0.008;2022-11-20T14:39:31;98721.50;;;15.08;70.35
47280;BME280;34064;44.942;0.008;2022-11-20T14:41:58;98710.50;;;15.11;70.39
47280;BME280;34064;44.942;0.008;2022-11-20T14:44:32;98725.69;;;15.21;70.23
47280;BME280;34064;44.942;0.008;2022-11-20T14:47:00;98720.00;;;15.24;70.07
47280;BME280;34064;44.942;0.008;2022-11-20T14:49:30;98727.03;;;15.25;69.74
47280;BME280;34064;44.942;0.008;2022-11-20T14:52:02;98728.72;;;15.26;69.62
47280;BME280;34064;44.942;0.008;2022-11-20T14:54:29;98742.28;;;15.24;69.42
47280;BME280;34064;44.942;0.008;2022-11-20T14:57:03;98747.91;;;15.21;69.17
47280;BME280;34064;44.942;0.008;2022-11-20T14:59:32;98756.81;;;15.12;69.07
47280;BME280;34064;44.942;0.008;2022-11-20T15:02:04;98762.06;;;15.04;69.21
47280;BME280;34064;44.942;0.008;2022-11-20T15:04:31;98767.88;;;14.99;69.38